Time;durP1;ratioP1;P1;durP2;ratioP2;P2;SDS_P1;SDS_P2;PMS_P1;PMS_P2;Temp;Humidity;BMP_temperature;BMP_pressure;BME280_temperature;BME280_humidity;BME280_pressure;Samples;Min_cycle;Max_cycle;Signal;HPM_P1;HPM_P2
2022/11/22 00:00:28;;;;;;;;;;;;;;;;;;6231300;22;19927;-90
2022/11/22 00:02:54;;;;;;;;;;;;;;;;;;6236640;22;20383;-91
2022/11/22 00:05:23;;;;;;;;;;;;;;;;;;6235520;22;19958;-89
2022/11/22 00:07:49;;;;;;;;;;;;;;;;;;6236253;22;20373;-90
2022/11/22 00:10:15;;;;;;;;;;;;;;;;;;6236886;22;20256;-90
2022/11/22 00:12:41;;;;;;;;;;;;;;;;;;6231706;22;20036;-90
2022/11/22 00:15:07;;;;;;;;;;;;;;;;;;6234459;22;20070;-90
2022/11/22 00:17:33;;;;;;;;;;;;;;;;;;6235449;22;19939;-90
2022/11/22 00:19:59;;;;;;;;;;;;;;;;;;6237488;22;20354;-92
2022/11/22 00:22:25;;;;;;;;;;;;;;;;;;6235234;22;19942;-91
2022/11/22 00:24:50;;;;;;;;;;;;;;;;;;6235307;22;19920;-91
2022/11/22 00:27:16;;;;;;;;;;;;;;;;;;6237763;22;19927;-91
2022/11/22 00:29:42;;;;;;;;;;;;;;;;;;6234031;22;19938;-91
2022/11/22 00:32:08;;;;;;;;;;;;;;;;;;6236824;22;19923;-91
2022/11/22 00:34:34;;;;;;;;;;;;;;;;;;6233549;22;20412;-91
2022/11/22 00:37:00;;;;;;;;;;;;;;;;;;6235425;22;19927;-91
2022/11/22 00:39:26;;;;;;;;;;;;;;;;;;6232697;22;19919;-91
2022/11/22 00:41:52;;;;;;;;;;;;;;;;;;6236578;22;19973;-91
2022/11/22 00:44:18;;;;;;;;;;;;;;;;;;6235786;22;20376;-91
2022/11/22 00:46:44;;;;;;;;;;;;;;;;;;6231872;22;20287;-91
2022/11/22 00:49:10;;;;;;;;;;;;;;;;;;6236259;22;20149;-90
2022/11/22 00:51:36;;;;;;;;;;;;;;;;;;6234231;22;19973;-91
2022/11/22 00:54:02;;;;;;;;;;;;;;;;;;6237480;22;19968;-90
2022/11/22 00:56:28;;;;;;;;;;;;;;;;;;6232806;22;20006;-91
2022/11/22 00:58:54;;;;;;;;;;;;;;;;;;6236979;22;20248;-90
2022/11/22 01:01:22;;;;;;;;;;;;;;;;;;6235265;22;19963;-91
2022/11/22 01:03:48;;;;;;;;;;;;;;;;;;6236376;22;20037;-91
2022/11/22 01:06:14;;;;;;;;;;;;;;;;;;6236011;22;19939;-91
2022/11/22 01:08:40;;;;;;;;;;;;;;;;;;6236129;22;20295;-90
2022/11/22 01:11:06;;;;;;;;;;;;;;;;;;6237923;22;19915;-91
2022/11/22 01:13:32;;;;;;;;;;;;;;;;;;6233648;22;19994;-91
2022/11/22 01:15:58;;;;;;;;;;;;;;;;;;6239003;22;19927;-90
2022/11/22 01:18:25;;;;;;;;;;;;;;;;;;6243118;22;19926;-91
2022/11/22 01:20:51;;;;;;;;;;;;;;;;;;6237063;22;19920;-91
2022/11/22 01:23:17;;;;;;;;;;;;;;;;;;6235606;22;19925;-91
2022/11/22 01:25:43;;;;;;;;;;;;;;;;;;6233925;22;19919;-91
2022/11/22 01:28:09;;;;;;;;;;;;;;;;;;6235298;22;19983;-91
2022/11/22 01:30:35;;;;;;;;;;;;;;;;;;6234187;22;20372;-90
2022/11/22 01:33:01;;;;;;;;;;;;;;;;;;6231662;22;19919;-90
2022/11/22 01:35:27;;;;;;;;;;;;;;;;;;6229115;22;19973;-91
2022/11/22 01:37:53;;;;;;;;;;;;;;;;;;6231793;22;19919;-90
2022/11/22 01:40:19;;;;;;;;;;;;;;;;;;6231416;22;20030;-91
2022/11/22 01:42:45;;;;;;;;;;;;;;;;;;6227589;22;19919;-90
2022/11/22 01:45:11;;;;;;;;;;;;;;;;;;6233798;22;19919;-90
2022/11/22 01:47:36;;;;;;;;;;;;;;;;;;6232300;22;20275;-90
2022/11/22 01:50:02;;;;;;;;;;;;;;;;;;6233564;22;19919;-91
2022/11/22 01:52:28;;;;;;;;;;;;;;;;;;6231795;22;19930;-90
2022/11/22 01:54:54;;;;;;;;;;;;;;;;;;6232675;22;19925;-90
2022/11/22 01:57:22;;;;;;;;;;;;;;;;;;6232804;22;19919;-91
2022/11/22 01:59:48;;;;;;;;;;;;;;;;;;6234665;22;19982;-90
2022/11/22 02:02:14;;;;;;;;;;;;;;;;;;6234166;22;19995;-91
2022/11/22 02:04:40;;;;;;;;;;;;;;;;;;6232909;22;19993;-91
2022/11/22 02:07:06;;;;;;;;;;;;;;;;;;6234244;22;19919;-90
2022/11/22 02:09:32;;;;;;;;;;;;;;;;;;6232954;22;19915;-90
2022/11/22 02:11:57;;;;;;;;;;;;;;;;;;6234864;22;19919;-90
2022/11/22 02:14:23;;;;;;;;;;;;;;;;;;6233402;22;19919;-90
2022/11/22 02:16:49;;;;;;;;;;;;;;;;;;6231619;22;20251;-90
2022/11/22 02:19:15;;;;;;;;;;;;;;;;;;6233817;22;19957;-91
2022/11/22 02:21:41;;;;;;;;;;;;;;;;;;6235963;22;19919;-90
2022/11/22 02:24:07;;;;;;;;;;;;;;;;;;6233461;22;19926;-90
2022/11/22 02:26:33;;;;;;;;;;;;;;;;;;6230188;22;19934;-90
2022/11/22 02:28:59;;;;;;;;;;;;;;;;;;6232331;22;19965;-90
2022/11/22 02:31:25;;;;;;;;;;;;;;;;;;6231156;22;19926;-90
2022/11/22 02:33:51;;;;;;;;;;;;;;;;;;6237283;22;19919;-90
2022/11/22 02:36:17;;;;;;;;;;;;;;;;;;6234457;22;20369;-90
2022/11/22 02:38:43;;;;;;;;;;;;;;;;;;6231815;22;19927;-90
2022/11/22 02:41:09;;;;;;;;;;;;;;;;;;6236108;22;19923;-91
2022/11/22 02:43:35;;;;;;;;;;;;;;;;;;6235924;22;20291;-91
2022/11/22 02:46:01;;;;;;;;;;;;;;;;;;6247969;22;19919;-90
2022/11/22 02:48:27;;;;;;;;;;;;;;;;;;6242907;22;19923;-91
2022/11/22 02:50:53;;;;;;;;;;;;;;;;;;6245337;22;19966;-91
2022/11/22 02:53:19;;;;;;;;;;;;;;;;;;6246210;22;19926;-90
2022/11/22 02:55:44;;;;;;;;;;;;;;;;;;6239592;22;19920;-91
2022/11/22 02:58:10;;;;;;;;;;;;;;;;;;6236128;22;19968;-90
2022/11/22 03:00:37;;;;;;;;;;;;;;;;;;6234212;22;20630;-90
2022/11/22 03:03:03;;;;;;;;;;;;;;;;;;6237446;22;19968;-91
2022/11/22 03:05:29;;;;;;;;;;;;;;;;;;6235647;22;19923;-91
2022/11/22 03:07:55;;;;;;;;;;;;;;;;;;6235849;22;19919;-90
2022/11/22 03:10:21;;;;;;;;;;;;;;;;;;6232545;22;19998;-90
2022/11/22 03:12:47;;;;;;;;;;;;;;;;;;6234536;22;19920;-91
2022/11/22 03:15:13;;;;;;;;;;;;;;;;;;6236253;22;19924;-91
2022/11/22 03:17:39;;;;;;;;;;;;;;;;;;6231484;22;19994;-90
2022/11/22 03:20:05;;;;;;;;;;;;;;;;;;6232908;22;19919;-89
2022/11/22 03:22:31;;;;;;;;;;;;;;;;;;6230440;22;19925;-90
2022/11/22 03:24:57;;;;;;;;;;;;;;;;;;6233533;22;20283;-91
2022/11/22 03:27:23;;;;;;;;;;;;;;;;;;6232056;22;20185;-90
2022/11/22 03:29:48;;;;;;;;;;;;;;;;;;6236308;22;19929;-90
2022/11/22 03:32:14;;;;;;;;;;;;;;;;;;6235771;22;19915;-90
2022/11/22 03:34:40;;;;;;;;;;;;;;;;;;6237347;22;20220;-91
2022/11/22 03:37:06;;;;;;;;;;;;;;;;;;6241276;22;19923;-90
2022/11/22 03:39:32;;;;;;;;;;;;;;;;;;6236998;22;20252;-90
2022/11/22 03:41:58;;;;;;;;;;;;;;;;;;6238249;22;19938;-91
2022/11/22 03:44:24;;;;;;;;;;;;;;;;;;6236211;22;19930;-91
2022/11/22 03:46:50;;;;;;;;;;;;;;;;;;6239914;22;19951;-90
2022/11/22 03:49:16;;;;;;;;;;;;;;;;;;6240220;22;20010;-90
2022/11/22 03:51:42;;;;;;;;;;;;;;;;;;6237221;22;20331;-91
2022/11/22 03:54:08;;;;;;;;;;;;;;;;;;6240007;22;19990;-90
2022/11/22 03:56:34;;;;;;;;;;;;;;;;;;6236931;22;19923;-90
2022/11/22 03:59:00;;;;;;;;;;;;;;;;;;6239245;22;19947;-90
2022/11/22 04:01:26;;;;;;;;;;;;;;;;;;6237749;22;19951;-91
2022/11/22 04:03:52;;;;;;;;;;;;;;;;;;6239265;22;20287;-90
2022/11/22 04:06:18;;;;;;;;;;;;;;;;;;6239260;22;19962;-90
2022/11/22 04:08:44;;;;;;;;;;;;;;;;;;6237789;22;20260;-91
2022/11/22 04:11:11;;;;;;;;;;;;;;;;;;6239708;22;19922;-90
2022/11/22 04:16:21;;;;;;;;;;;;;;;;;;6235066;22;19963;-90
2022/11/22 04:18:47;;;;;;;;;;;;;;;;;;6240989;22;19919;-90
2022/11/22 04:26:43;;;;;;;;;;;;;;;;;;6236288;22;19919;-90
2022/11/22 04:29:09;;;;;;;;;;;;;;;;;;6239236;22;20336;-90
2022/11/22 04:34:22;;;;;;;;;;;;;;;;;;6239019;22;19950;-90
2022/11/22 04:36:48;;;;;;;;;;;;;;;;;;6239538;22;20072;-90
2022/11/22 04:39:14;;;;;;;;;;;;;;;;;;6239698;22;19922;-90
2022/11/22 04:41:40;;;;;;;;;;;;;;;;;;6236956;22;20533;-90
2022/11/22 04:46:51;;;;;;;;;;;;;;;;;;6233620;23;20324;-90
2022/11/22 04:49:17;;;;;;;;;;;;;;;;;;6233517;23;19920;-89
2022/11/22 04:54:28;;;;;;;;;;;;;;;;;;6230987;22;20390;-91
2022/11/22 04:56:54;;;;;;;;;;;;;;;;;;6234182;23;19927;-91
2022/11/22 04:59:23;;;;;;;;;;;;;;;;;;6234057;23;19916;-90
2022/11/22 05:01:49;;;;;;;;;;;;;;;;;;6233525;23;20328;-90
2022/11/22 05:04:15;;;;;;;;;;;;;;;;;;6233161;23;19926;-90
2022/11/22 05:06:41;;;;;;;;;;;;;;;;;;6229319;23;20278;-91
2022/11/22 05:09:07;;;;;;;;;;;;;;;;;;6231462;23;19921;-90
2022/11/22 05:11:33;;;;;;;;;;;;;;;;;;6231351;23;19922;-90
2022/11/22 05:13:59;;;;;;;;;;;;;;;;;;6231320;23;19927;-90
2022/11/22 05:16:25;;;;;;;;;;;;;;;;;;6230725;23;19923;-90
2022/11/22 05:19:00;;;;;;;;;;;;;;;;;;6233216;23;19924;-91
2022/11/22 05:21:26;;;;;;;;;;;;;;;;;;6229694;23;19919;-90
2022/11/22 05:23:55;;;;;;;;;;;;;;;;;;6231917;23;19916;-90
2022/11/22 05:26:21;;;;;;;;;;;;;;;;;;6232098;23;20295;-90
2022/11/22 05:28:47;;;;;;;;;;;;;;;;;;6234563;23;19971;-90
2022/11/22 05:31:13;;;;;;;;;;;;;;;;;;6234063;23;19920;-91
2022/11/22 05:33:39;;;;;;;;;;;;;;;;;;6231165;23;20384;-90
2022/11/22 05:36:05;;;;;;;;;;;;;;;;;;6232522;23;19923;-89
2022/11/22 05:38:31;;;;;;;;;;;;;;;;;;6227475;23;19926;-90
2022/11/22 05:40:57;;;;;;;;;;;;;;;;;;6230350;23;19919;-91
2022/11/22 05:43:23;;;;;;;;;;;;;;;;;;6228501;22;20683;-91
2022/11/22 05:45:49;;;;;;;;;;;;;;;;;;6233837;22;19919;-90
2022/11/22 05:48:15;;;;;;;;;;;;;;;;;;6232312;22;19919;-91
2022/11/22 05:50:41;;;;;;;;;;;;;;;;;;6229624;22;20291;-92
2022/11/22 05:53:07;;;;;;;;;;;;;;;;;;6237000;22;19923;-91
2022/11/22 05:55:33;;;;;;;;;;;;;;;;;;6233491;22;19926;-92
2022/11/22 05:58:00;;;;;;;;;;;;;;;;;;6238063;22;20331;-91
2022/11/22 06:00:26;;;;;;;;;;;;;;;;;;6235617;22;19919;-92
2022/11/22 06:02:52;;;;;;;;;;;;;;;;;;6230815;22;19915;-90
2022/11/22 06:05:18;;;;;;;;;;;;;;;;;;6232888;22;19923;-90
2022/11/22 06:07:44;;;;;;;;;;;;;;;;;;6231232;22;20018;-91
2022/11/22 06:10:10;;;;;;;;;;;;;;;;;;6239346;22;20393;-91
2022/11/22 06:12:36;;;;;;;;;;;;;;;;;;6235338;22;19919;-90
2022/11/22 06:15:02;;;;;;;;;;;;;;;;;;6236189;22;19927;-90
2022/11/22 06:17:28;;;;;;;;;;;;;;;;;;6236097;22;19994;-90
2022/11/22 06:19:54;;;;;;;;;;;;;;;;;;6239116;22;20666;-90
2022/11/22 06:22:23;;;;;;;;;;;;;;;;;;6239667;22;20338;-90
2022/11/22 06:24:49;;;;;;;;;;;;;;;;;;6238499;22;19926;-90
2022/11/22 06:27:15;;;;;;;;;;;;;;;;;;6239459;22;19920;-90
2022/11/22 06:29:41;;;;;;;;;;;;;;;;;;6236867;22;20266;-91
2022/11/22 06:32:07;;;;;;;;;;;;;;;;;;6238148;22;19968;-90
2022/11/22 06:34:33;;;;;;;;;;;;;;;;;;6237228;22;20389;-90
2022/11/22 06:36:59;;;;;;;;;;;;;;;;;;6239185;22;20018;-90
2022/11/22 06:39:25;;;;;;;;;;;;;;;;;;6236111;22;20283;-89
2022/11/22 06:41:51;;;;;;;;;;;;;;;;;;6238976;22;19950;-90
2022/11/22 06:44:17;;;;;;;;;;;;;;;;;;6238456;22;19923;-90
2022/11/22 06:46:43;;;;;;;;;;;;;;;;;;6235930;22;19919;-91
2022/11/22 06:49:09;;;;;;;;;;;;;;;;;;6238032;22;19915;-90
2022/11/22 06:51:35;;;;;;;;;;;;;;;;;;6231798;22;19969;-90
2022/11/22 06:54:01;;;;;;;;;;;;;;;;;;6237523;22;19994;-90
2022/11/22 06:56:27;;;;;;;;;;;;;;;;;;6235910;22;19942;-90
2022/11/22 06:58:53;;;;;;;;;;;;;;;;;;6236519;22;19919;-90
2022/11/22 07:01:18;;;;;;;;;;;;;;;;;;6238228;22;19923;-90
2022/11/22 07:03:44;;;;;;;;;;;;;;;;;;6236025;22;20577;-90
2022/11/22 07:06:10;;;;;;;;;;;;;;;;;;6240036;22;19922;-89
2022/11/22 07:08:36;;;;;;;;;;;;;;;;;;6236956;22;19981;-91
2022/11/22 07:11:06;;;;;;;;;;;;;;;;;;6239861;22;20393;-89
2022/11/22 07:13:34;;;;;;;;;;;;;;;;;;6262173;22;19919;-89
2022/11/22 07:16:04;;;;;;;;;;;;;;;;;;6239691;22;19926;-90
2022/11/22 07:18:30;;;;;;;;;;;;;;;;;;6239993;22;19977;-89
2022/11/22 07:20:58;;;;;;;;;;;;;;;;;;6242169;22;20343;-90
2022/11/22 07:23:35;;;;;;;;;;;;;;;;;;;;;
2022/11/22 07:26:16;;;;;;;;;;;;;;;;;;6278674;22;19973;-91
2022/11/22 07:28:47;;;;;;;;;;;;;;;;;;6236332;22;20331;-90
2022/11/22 07:31:18;;;;;;;;;;;;;;;;;;6202697;23;19995;-90
2022/11/22 07:33:44;;;;;;;;;;;;;;;;;;6200402;23;19927;-90
2022/11/22 07:36:16;;;;;;;;;;;;;;;;;;6155888;23;19931;-91
2022/11/22 07:38:46;;;;;;;;;;;;;;;;;;6174926;23;19955;-91
2022/11/22 07:41:15;;;;;;;;;;;;;;;;;;6181507;23;19955;-90
2022/11/22 07:43:41;;;;;;;;;;;;;;;;;;6199628;23;20403;-90
2022/11/22 07:46:10;;;;;;;;;;;;;;;;;;6179461;23;19920;-91
2022/11/22 07:48:36;;;;;;;;;;;;;;;;;;6197423;23;19920;-91
2022/11/22 07:51:02;;;;;;;;;;;;;;;;;;6150217;23;19922;-91
2022/11/22 07:53:28;;;;;;;;;;;;;;;;;;6201304;23;19930;-91
2022/11/22 07:55:56;;;;;;;;;;;;;;;;;;6203129;23;19959;-90
2022/11/22 07:58:25;;;;;;;;;;;;;;;;;;6177011;23;19923;-91
2022/11/22 08:00:51;;;;;;;;;;;;;;;;;;6179244;23;19986;-90
2022/11/22 08:03:17;;;;;;;;;;;;;;;;;;6213642;22;19943;-90
2022/11/22 08:05:43;;;;;;;;;;;;;;;;;;6238181;22;19989;-90
2022/11/22 08:08:09;;;;;;;;;;;;;;;;;;6239948;22;20324;-91
2022/11/22 08:10:35;;;;;;;;;;;;;;;;;;6237136;22;20399;-91
2022/11/22 08:13:01;;;;;;;;;;;;;;;;;;6240225;22;19919;-90
2022/11/22 08:15:27;;;;;;;;;;;;;;;;;;6234738;22;19965;-91
2022/11/22 08:17:53;;;;;;;;;;;;;;;;;;6239893;22;19919;-90
2022/11/22 08:20:18;;;;;;;;;;;;;;;;;;6240086;22;19919;-90
2022/11/22 08:22:44;;;;;;;;;;;;;;;;;;6237374;22;20402;-91
2022/11/22 08:25:13;;;;;;;;;;;;;;;;;;6239667;22;19973;-91
2022/11/22 08:27:40;;;;;;;;;;;;;;;;;;6236955;22;20313;-91
2022/11/22 08:30:06;;;;;;;;;;;;;;;;;;6237592;22;19965;-90
2022/11/22 08:32:32;;;;;;;;;;;;;;;;;;6236489;22;19926;-91
2022/11/22 08:34:58;;;;;;;;;;;;;;;;;;6242101;22;19919;-91
2022/11/22 08:37:24;;;;;;;;;;;;;;;;;;6239141;22;19919;-91
2022/11/22 08:39:50;;;;;;;;;;;;;;;;;;6240261;22;19919;-90
2022/11/22 08:42:16;;;;;;;;;;;;;;;;;;6239344;22;19985;-91
2022/11/22 08:44:42;;;;;;;;;;;;;;;;;;6240909;22;20237;-91
2022/11/22 08:47:08;;;;;;;;;;;;;;;;;;6242611;22;19919;-91
2022/11/22 08:49:34;;;;;;;;;;;;;;;;;;6240271;22;19919;-90
2022/11/22 08:52:00;;;;;;;;;;;;;;;;;;6242635;22;19919;-91
2022/11/22 08:54:26;;;;;;;;;;;;;;;;;;6240171;22;19925;-91
2022/11/22 08:56:52;;;;;;;;;;;;;;;;;;6242804;22;19969;-90
2022/11/22 08:59:17;;;;;;;;;;;;;;;;;;6242304;22;20405;-90
2022/11/22 09:01:43;;;;;;;;;;;;;;;;;;6239703;22;19919;-90
2022/11/22 09:04:09;;;;;;;;;;;;;;;;;;6240458;22;19938;-90
2022/11/22 09:06:37;;;;;;;;;;;;;;;;;;6239439;22;19920;-91
2022/11/22 09:09:03;;;;;;;;;;;;;;;;;;6242403;22;19919;-91
2022/11/22 09:11:29;;;;;;;;;;;;;;;;;;6237833;22;19919;-90
2022/11/22 09:13:56;;;;;;;;;;;;;;;;;;6240228;22;19942;-90
2022/11/22 09:16:22;;;;;;;;;;;;;;;;;;6232457;22;19930;-90
2022/11/22 09:18:48;;;;;;;;;;;;;;;;;;6234101;22;19923;-90
2022/11/22 09:21:17;;;;;;;;;;;;;;;;;;6232949;22;19915;-91
2022/11/22 09:23:43;;;;;;;;;;;;;;;;;;6233957;22;19995;-90
2022/11/22 09:26:09;;;;;;;;;;;;;;;;;;6236988;22;20181;-90
2022/11/22 09:28:35;;;;;;;;;;;;;;;;;;6236251;22;19953;-91
2022/11/22 09:31:01;;;;;;;;;;;;;;;;;;6235986;22;19919;-91
2022/11/22 09:33:27;;;;;;;;;;;;;;;;;;6232499;22;19919;-91
2022/11/22 09:35:54;;;;;;;;;;;;;;;;;;6235952;22;19995;-90
2022/11/22 09:38:23;;;;;;;;;;;;;;;;;;6234962;22;20324;-91
2022/11/22 09:40:49;;;;;;;;;;;;;;;;;;6234640;22;19919;-91
2022/11/22 09:43:15;;;;;;;;;;;;;;;;;;6237607;22;19970;-90
2022/11/22 09:45:41;;;;;;;;;;;;;;;;;;6234127;22;20338;-91
2022/11/22 09:48:07;;;;;;;;;;;;;;;;;;6237192;22;19919;-90
2022/11/22 09:50:33;;;;;;;;;;;;;;;;;;6231083;22;20397;-91
2022/11/22 09:52:59;;;;;;;;;;;;;;;;;;6237140;22;19919;-91
2022/11/22 09:55:25;;;;;;;;;;;;;;;;;;6234410;22;19942;-90
2022/11/22 09:57:51;;;;;;;;;;;;;;;;;;6238345;22;19922;-91
2022/11/22 10:00:17;;;;;;;;;;;;;;;;;;6236801;22;19919;-91
2022/11/22 10:02:43;;;;;;;;;;;;;;;;;;6234072;22;19926;-91
2022/11/22 10:05:09;;;;;;;;;;;;;;;;;;6236553;22;19915;-91
2022/11/22 10:07:35;;;;;;;;;;;;;;;;;;6234857;22;19974;-91
2022/11/22 10:10:01;;;;;;;;;;;;;;;;;;6234486;22;19919;-91
2022/11/22 10:12:27;;;;;;;;;;;;;;;;;;6234102;22;20100;-90
2022/11/22 10:14:54;;;;;;;;;;;;;;;;;;6236489;22;19923;-91
2022/11/22 10:17:23;;;;;;;;;;;;;;;;;;6237398;22;19923;-91
2022/11/22 10:19:49;;;;;;;;;;;;;;;;;;6236095;22;20184;-91
2022/11/22 10:22:15;;;;;;;;;;;;;;;;;;6235618;22;19919;-91
2022/11/22 10:24:41;;;;;;;;;;;;;;;;;;6233043;22;20321;-91
2022/11/22 10:27:07;;;;;;;;;;;;;;;;;;6237256;22;19919;-91
2022/11/22 10:29:33;;;;;;;;;;;;;;;;;;6232739;22;19922;-90
2022/11/22 10:31:59;;;;;;;;;;;;;;;;;;6236642;22;19919;-91
2022/11/22 10:34:24;;;;;;;;;;;;;;;;;;6232623;22;20324;-91
2022/11/22 10:36:51;;;;;;;;;;;;;;;;;;6236490;22;19984;-91
2022/11/22 10:39:17;;;;;;;;;;;;;;;;;;6240221;22;19919;-90
2022/11/22 10:41:43;;;;;;;;;;;;;;;;;;6235333;22;19941;-91
2022/11/22 10:44:09;;;;;;;;;;;;;;;;;;6238604;22;19955;-91
2022/11/22 10:46:35;;;;;;;;;;;;;;;;;;6235975;22;20339;-91
2022/11/22 10:49:01;;;;;;;;;;;;;;;;;;6239661;22;19955;-90
2022/11/22 10:51:27;;;;;;;;;;;;;;;;;;6235229;22;20221;-91
2022/11/22 10:53:53;;;;;;;;;;;;;;;;;;6238596;22;19919;-91
2022/11/22 10:56:19;;;;;;;;;;;;;;;;;;6239217;22;19969;-91
2022/11/22 10:58:45;;;;;;;;;;;;;;;;;;6235504;22;19919;-91
2022/11/22 11:01:11;;;;;;;;;;;;;;;;;;6239260;22;19915;-91
2022/11/22 11:03:37;;;;;;;;;;;;;;;;;;6234850;22;19915;-91
2022/11/22 11:06:02;;;;;;;;;;;;;;;;;;6237752;22;19916;-91
2022/11/22 11:08:29;;;;;;;;;;;;;;;;;;6234429;22;20390;-91
2022/11/22 11:10:55;;;;;;;;;;;;;;;;;;6239140;22;19962;-91
2022/11/22 11:13:21;;;;;;;;;;;;;;;;;;6237433;22;20225;-91
2022/11/22 11:15:47;;;;;;;;;;;;;;;;;;6238477;22;19919;-90
2022/11/22 11:18:13;;;;;;;;;;;;;;;;;;6237869;22;20032;-91
2022/11/22 11:20:39;;;;;;;;;;;;;;;;;;6235427;22;19919;-91
2022/11/22 11:23:05;;;;;;;;;;;;;;;;;;6239212;22;19968;-91
2022/11/22 11:25:31;;;;;;;;;;;;;;;;;;6236457;22;20353;-91
2022/11/22 11:27:57;;;;;;;;;;;;;;;;;;6239593;22;20244;-91
2022/11/22 11:30:23;;;;;;;;;;;;;;;;;;6236922;22;20233;-91
2022/11/22 11:32:49;;;;;;;;;;;;;;;;;;6238244;22;19926;-91
2022/11/22 11:35:15;;;;;;;;;;;;;;;;;;6239285;22;19926;-91
2022/11/22 11:37:41;;;;;;;;;;;;;;;;;;6231209;22;20419;-91
2022/11/22 11:40:07;;;;;;;;;;;;;;;;;;6233655;22;19919;-91
2022/11/22 11:42:33;;;;;;;;;;;;;;;;;;6233881;22;19925;-91
2022/11/22 11:44:59;;;;;;;;;;;;;;;;;;6238193;22;19920;-91
2022/11/22 11:47:25;;;;;;;;;;;;;;;;;;6236099;22;19954;-90
2022/11/22 11:49:51;;;;;;;;;;;;;;;;;;6256142;22;19923;-91
2022/11/22 11:52:17;;;;;;;;;;;;;;;;;;6259058;22;19926;-90
2022/11/22 11:54:43;;;;;;;;;;;;;;;;;;6242747;22;19951;-91
2022/11/22 11:57:09;;;;;;;;;;;;;;;;;;6239087;22;19924;-90
2022/11/22 11:59:35;;;;;;;;;;;;;;;;;;6236059;22;19975;-90
2022/11/22 12:02:01;;;;;;;;;;;;;;;;;;6238701;22;19920;-90
2022/11/22 12:04:27;;;;;;;;;;;;;;;;;;6235224;22;20299;-91
2022/11/22 12:06:53;;;;;;;;;;;;;;;;;;6239630;22;19923;-91
2022/11/22 12:09:19;;;;;;;;;;;;;;;;;;6239240;22;20290;-91
2022/11/22 12:11:45;;;;;;;;;;;;;;;;;;6234780;22;19992;-91
2022/11/22 12:14:11;;;;;;;;;;;;;;;;;;6238188;22;19919;-92
2022/11/22 12:16:37;;;;;;;;;;;;;;;;;;6235089;22;19924;-91
2022/11/22 12:19:03;;;;;;;;;;;;;;;;;;6237447;22;19986;-90
2022/11/22 12:21:29;;;;;;;;;;;;;;;;;;6236200;22;19915;-91
2022/11/22 12:23:55;;;;;;;;;;;;;;;;;;6238055;22;19919;-91
2022/11/22 12:26:21;;;;;;;;;;;;;;;;;;6238272;22;19919;-91
2022/11/22 12:28:47;;;;;;;;;;;;;;;;;;6240496;22;20336;-91
2022/11/22 12:31:13;;;;;;;;;;;;;;;;;;6240988;22;19973;-91
2022/11/22 12:33:39;;;;;;;;;;;;;;;;;;6238163;22;19915;-90
2022/11/22 12:36:05;;;;;;;;;;;;;;;;;;6241122;22;19981;-91
2022/11/22 12:38:31;;;;;;;;;;;;;;;;;;6237926;22;19922;-91
2022/11/22 12:40:57;;;;;;;;;;;;;;;;;;6238644;22;19919;-90
2022/11/22 12:43:23;;;;;;;;;;;;;;;;;;6233644;22;19915;-90
2022/11/22 12:45:49;;;;;;;;;;;;;;;;;;6235843;22;19962;-91
2022/11/22 12:48:15;;;;;;;;;;;;;;;;;;6239014;22;19919;-90
2022/11/22 12:50:41;;;;;;;;;;;;;;;;;;6236327;22;20491;-90
2022/11/22 12:53:07;;;;;;;;;;;;;;;;;;6240613;22;19916;-90
2022/11/22 12:55:33;;;;;;;;;;;;;;;;;;6236403;22;20364;-90
2022/11/22 12:57:59;;;;;;;;;;;;;;;;;;6241124;22;19922;-90
2022/11/22 13:00:25;;;;;;;;;;;;;;;;;;6237646;22;19994;-90
2022/11/22 13:02:50;;;;;;;;;;;;;;;;;;6241728;22;19926;-89
2022/11/22 13:05:17;;;;;;;;;;;;;;;;;;6238837;22;20343;-89
2022/11/22 13:07:42;;;;;;;;;;;;;;;;;;6237839;22;19919;-90
2022/11/22 13:10:08;;;;;;;;;;;;;;;;;;6243431;22;19923;-90
2022/11/22 13:12:34;;;;;;;;;;;;;;;;;;6237384;22;19994;-90
2022/11/22 13:15:01;;;;;;;;;;;;;;;;;;6243476;22;19919;-90
2022/11/22 13:17:27;;;;;;;;;;;;;;;;;;6239300;22;19970;-90
2022/11/22 13:19:52;;;;;;;;;;;;;;;;;;6240142;22;19919;-90
2022/11/22 13:22:18;;;;;;;;;;;;;;;;;;6239082;22;19919;-90
2022/11/22 13:24:44;;;;;;;;;;;;;;;;;;6237127;22;19962;-90
2022/11/22 13:27:10;;;;;;;;;;;;;;;;;;6240402;22;20240;-90
2022/11/22 13:29:36;;;;;;;;;;;;;;;;;;6237415;22;19919;-90
2022/11/22 13:32:02;;;;;;;;;;;;;;;;;;6240210;22;20340;-91
2022/11/22 13:34:28;;;;;;;;;;;;;;;;;;6237437;22;19924;-91
2022/11/22 13:36:54;;;;;;;;;;;;;;;;;;6240370;22;19923;-90
2022/11/22 13:39:24;;;;;;;;;;;;;;;;;;6241294;22;20247;-88
2022/11/22 13:41:50;;;;;;;;;;;;;;;;;;6240635;22;19923;-89
2022/11/22 13:44:16;;;;;;;;;;;;;;;;;;6240171;22;19919;-89
2022/11/22 13:46:42;;;;;;;;;;;;;;;;;;6237081;22;19927;-89
2022/11/22 13:49:08;;;;;;;;;;;;;;;;;;6239980;22;20307;-89
2022/11/22 13:51:34;;;;;;;;;;;;;;;;;;6238547;22;20292;-89
2022/11/22 13:54:00;;;;;;;;;;;;;;;;;;6238275;22;19919;-90
2022/11/22 13:56:26;;;;;;;;;;;;;;;;;;6236940;22;20260;-89
2022/11/22 13:58:54;;;;;;;;;;;;;;;;;;6241040;22;19919;-89
2022/11/22 14:01:23;;;;;;;;;;;;;;;;;;6237477;22;19919;-89
2022/11/22 14:03:49;;;;;;;;;;;;;;;;;;6239623;22;19930;-90
2022/11/22 14:06:15;;;;;;;;;;;;;;;;;;6239988;22;19919;-89
2022/11/22 14:08:42;;;;;;;;;;;;;;;;;;6236558;22;20321;-89
2022/11/22 14:11:08;;;;;;;;;;;;;;;;;;6239013;22;19919;-90
2022/11/22 14:13:34;;;;;;;;;;;;;;;;;;6235373;22;19969;-89
2022/11/22 14:16:00;;;;;;;;;;;;;;;;;;6240921;22;20001;-89
2022/11/22 14:18:26;;;;;;;;;;;;;;;;;;6237767;22;20466;-89
2022/11/22 14:20:52;;;;;;;;;;;;;;;;;;6235813;22;20393;-89
2022/11/22 14:23:18;;;;;;;;;;;;;;;;;;6236736;22;19923;-89
2022/11/22 14:25:44;;;;;;;;;;;;;;;;;;6236282;22;19920;-89
2022/11/22 14:28:10;;;;;;;;;;;;;;;;;;6238047;22;19915;-89
2022/11/22 14:30:36;;;;;;;;;;;;;;;;;;6235885;22;19920;-88
2022/11/22 14:33:02;;;;;;;;;;;;;;;;;;6238534;22;19965;-89
2022/11/22 14:35:28;;;;;;;;;;;;;;;;;;6234853;22;19923;-90
2022/11/22 14:37:54;;;;;;;;;;;;;;;;;;6238354;22;19989;-89
2022/11/22 14:40:23;;;;;;;;;;;;;;;;;;6235867;22;19919;-89
2022/11/22 14:42:49;;;;;;;;;;;;;;;;;;6237119;22;19941;-88
2022/11/22 14:45:14;;;;;;;;;;;;;;;;;;6232647;23;20483;-89
2022/11/22 14:47:40;;;;;;;;;;;;;;;;;;6231018;23;20281;-89
2022/11/22 14:50:06;;;;;;;;;;;;;;;;;;6232437;23;20025;-88
2022/11/22 14:52:32;;;;;;;;;;;;;;;;;;6231373;23;19916;-87
2022/11/22 14:54:58;;;;;;;;;;;;;;;;;;6233908;22;19935;-87
2022/11/22 14:57:24;;;;;;;;;;;;;;;;;;6229077;23;20257;-88
2022/11/22 14:59:50;;;;;;;;;;;;;;;;;;6232710;23;19916;-87
2022/11/22 15:02:16;;;;;;;;;;;;;;;;;;6249464;23;19927;-87
2022/11/22 15:04:42;;;;;;;;;;;;;;;;;;6249947;23;19919;-87
2022/11/22 15:07:08;;;;;;;;;;;;;;;;;;6230302;23;20001;-88
2022/11/22 15:09:34;;;;;;;;;;;;;;;;;;6228252;23;19920;-88
2022/11/22 15:12:00;;;;;;;;;;;;;;;;;;6230209;23;19916;-87
2022/11/22 15:14:26;;;;;;;;;;;;;;;;;;6229235;23;19954;-88
2022/11/22 15:16:53;;;;;;;;;;;;;;;;;;6232962;23;19951;-88
2022/11/22 15:19:19;;;;;;;;;;;;;;;;;;6232267;23;20022;-88
2022/11/22 15:21:46;;;;;;;;;;;;;;;;;;6233824;23;20321;-87
2022/11/22 15:24:12;;;;;;;;;;;;;;;;;;6233484;23;19958;-87
2022/11/22 15:26:38;;;;;;;;;;;;;;;;;;6230915;23;20332;-88
2022/11/22 15:29:04;;;;;;;;;;;;;;;;;;6233825;23;19926;-88
2022/11/22 15:31:30;;;;;;;;;;;;;;;;;;6231087;23;20342;-88
2022/11/22 15:33:56;;;;;;;;;;;;;;;;;;6231684;23;19919;-89
2022/11/22 15:36:22;;;;;;;;;;;;;;;;;;6230422;23;19923;-88
2022/11/22 15:38:48;;;;;;;;;;;;;;;;;;6232839;23;19970;-87
2022/11/22 15:41:14;;;;;;;;;;;;;;;;;;6233447;23;19951;-88
2022/11/22 15:43:40;;;;;;;;;;;;;;;;;;6227113;23;19926;-88
2022/11/22 15:46:07;;;;;;;;;;;;;;;;;;6231202;23;19942;-88
2022/11/22 15:48:32;;;;;;;;;;;;;;;;;;6230664;23;20014;-88
2022/11/22 15:50:58;;;;;;;;;;;;;;;;;;6233457;23;19923;-88
2022/11/22 15:53:24;;;;;;;;;;;;;;;;;;6231623;23;19920;-87
2022/11/22 15:55:50;;;;;;;;;;;;;;;;;;6235083;22;19955;-88
2022/11/22 15:58:16;;;;;;;;;;;;;;;;;;6236664;23;19916;-87
2022/11/22 16:00:42;;;;;;;;;;;;;;;;;;6228111;23;19920;-87
2022/11/22 16:03:08;;;;;;;;;;;;;;;;;;6234423;23;20349;-87
2022/11/22 16:05:34;;;;;;;;;;;;;;;;;;6231806;23;19920;-87
2022/11/22 16:08:00;;;;;;;;;;;;;;;;;;6235157;23;19991;-87
2022/11/22 16:10:26;;;;;;;;;;;;;;;;;;6234386;23;19947;-88
2022/11/22 16:12:52;;;;;;;;;;;;;;;;;;6237282;23;19977;-88
2022/11/22 16:15:18;;;;;;;;;;;;;;;;;;6237102;23;19926;-87
2022/11/22 16:17:44;;;;;;;;;;;;;;;;;;6234962;23;19923;-87
2022/11/22 16:20:10;;;;;;;;;;;;;;;;;;6237224;23;19951;-87
2022/11/22 16:22:36;;;;;;;;;;;;;;;;;;6235867;23;19927;-87
2022/11/22 16:25:02;;;;;;;;;;;;;;;;;;6233765;23;19916;-86
2022/11/22 16:27:28;;;;;;;;;;;;;;;;;;6233765;23;19919;-87
2022/11/22 16:29:54;;;;;;;;;;;;;;;;;;6237977;23;19915;-87
2022/11/22 16:32:23;;;;;;;;;;;;;;;;;;6236610;23;20252;-87
2022/11/22 16:34:49;;;;;;;;;;;;;;;;;;6228802;23;19915;-88
2022/11/22 16:37:15;;;;;;;;;;;;;;;;;;6229597;23;19924;-87
2022/11/22 16:39:40;;;;;;;;;;;;;;;;;;6229184;23;20648;-88
2022/11/22 16:42:06;;;;;;;;;;;;;;;;;;6233097;23;19919;-88
2022/11/22 16:44:32;;;;;;;;;;;;;;;;;;6234488;23;19931;-89
2022/11/22 16:46:59;;;;;;;;;;;;;;;;;;6232148;23;20345;-89
2022/11/22 16:49:25;;;;;;;;;;;;;;;;;;6228622;23;19919;-89
2022/11/22 16:51:51;;;;;;;;;;;;;;;;;;6232244;23;20044;-89
2022/11/22 16:54:17;;;;;;;;;;;;;;;;;;6225818;22;20627;-89